sensor_id;sensor_type;location;lat;lon;timestamp;P1;durP1;ratioP1;P2;durP2;ratioP2
18190;SDS011;47004;51.366;12.348;2023-03-11T00:00:01;3.70;;;2.30;;
18190;SDS011;47004;51.366;12.348;2023-03-11T00:02:06;4.53;;;2.77;;
18190;SDS011;47004;51.366;12.348;2023-03-11T00:04:08;3.07;;;2.33;;
18190;SDS011;47004;51.366;12.348;2023-03-11T00:06:10;6.50;;;3.50;;
18190;SDS011;47004;51.366;12.348;2023-03-11T00:08:15;5.53;;;2.70;;
18190;SDS011;47004;51.366;12.348;2023-03-11T00:10:19;6.17;;;3.60;;
18190;SDS011;47004;51.366;12.348;2023-03-11T00:12:23;3.83;;;2.57;;
18190;SDS011;47004;51.366;12.348;2023-03-11T00:14:25;3.30;;;2.40;;
18190;SDS011;47004;51.366;12.348;2023-03-11T00:16:27;4.30;;;2.40;;
18190;SDS011;47004;51.366;12.348;2023-03-11T00:18:29;4.37;;;3.00;;
18190;SDS011;47004;51.366;12.348;2023-03-11T00:20:32;4.03;;;2.77;;
18190;SDS011;47004;51.366;12.348;2023-03-11T00:22:35;5.87;;;3.07;;
18190;SDS011;47004;51.366;12.348;2023-03-11T00:24:38;5.80;;;3.93;;
18190;SDS011;47004;51.366;12.348;2023-03-11T00:26:40;5.83;;;3.53;;
18190;SDS011;47004;51.366;12.348;2023-03-11T00:28:42;6.23;;;3.97;;
18190;SDS011;47004;51.366;12.348;2023-03-11T00:30:48;5.83;;;3.40;;
18190;SDS011;47004;51.366;12.348;2023-03-11T00:32:50;6.10;;;3.70;;
18190;SDS011;47004;51.366;12.348;2023-03-11T00:34:54;6.10;;;3.57;;
18190;SDS011;47004;51.366;12.348;2023-03-11T00:36:59;8.50;;;4.60;;
18190;SDS011;47004;51.366;12.348;2023-03-11T00:39:01;7.60;;;3.80;;
18190;SDS011;47004;51.366;12.348;2023-03-11T00:41:07;5.73;;;3.43;;
18190;SDS011;47004;51.366;12.348;2023-03-11T00:43:08;7.70;;;4.23;;
18190;SDS011;47004;51.366;12.348;2023-03-11T00:45:10;7.93;;;4.50;;
18190;SDS011;47004;51.366;12.348;2023-03-11T00:47:13;8.47;;;4.23;;
18190;SDS011;47004;51.366;12.348;2023-03-11T00:49:15;7.50;;;4.40;;
18190;SDS011;47004;51.366;12.348;2023-03-11T00:51:16;9.30;;;5.17;;
18190;SDS011;47004;51.366;12.348;2023-03-11T00:53:19;8.83;;;5.00;;
18190;SDS011;47004;51.366;12.348;2023-03-11T00:55:21;10.47;;;5.30;;
18190;SDS011;47004;51.366;12.348;2023-03-11T00:57:26;12.73;;;6.30;;
18190;SDS011;47004;51.366;12.348;2023-03-11T00:59:28;9.80;;;5.57;;
18190;SDS011;47004;51.366;12.348;2023-03-11T01:01:30;11.43;;;6.50;;
18190;SDS011;47004;51.366;12.348;2023-03-11T01:03:32;14.47;;;6.80;;
18190;SDS011;47004;51.366;12.348;2023-03-11T01:05:34;11.63;;;6.13;;
18190;SDS011;47004;51.366;12.348;2023-03-11T01:07:37;14.43;;;6.37;;
18190;SDS011;47004;51.366;12.348;2023-03-11T01:09:39;14.80;;;7.10;;
18190;SDS011;47004;51.366;12.348;2023-03-11T01:11:41;15.27;;;7.60;;
18190;SDS011;47004;51.366;12.348;2023-03-11T01:13:44;17.53;;;8.13;;
18190;SDS011;47004;51.366;12.348;2023-03-11T01:15:46;16.43;;;8.23;;
18190;SDS011;47004;51.366;12.348;2023-03-11T01:17:48;17.17;;;7.87;;
18190;SDS011;47004;51.366;12.348;2023-03-11T01:19:50;17.83;;;8.80;;
18190;SDS011;47004;51.366;12.348;2023-03-11T01:21:52;18.73;;;8.57;;
18190;SDS011;47004;51.366;12.348;2023-03-11T01:23:54;16.47;;;8.50;;
18190;SDS011;47004;51.366;12.348;2023-03-11T01:25:58;19.33;;;8.70;;
18190;SDS011;47004;51.366;12.348;2023-03-11T01:28:00;18.70;;;9.10;;
18190;SDS011;47004;51.366;12.348;2023-03-11T01:30:03;17.17;;;8.57;;
18190;SDS011;47004;51.366;12.348;2023-03-11T01:32:06;18.23;;;9.30;;
18190;SDS011;47004;51.366;12.348;2023-03-11T01:34:08;16.40;;;8.10;;
18190;SDS011;47004;51.366;12.348;2023-03-11T01:36:11;16.30;;;7.83;;
18190;SDS011;47004;51.366;12.348;2023-03-11T01:38:13;17.27;;;8.43;;
18190;SDS011;47004;51.366;12.348;2023-03-11T01:40:17;20.43;;;8.33;;
18190;SDS011;47004;51.366;12.348;2023-03-11T01:42:21;18.70;;;8.43;;
18190;SDS011;47004;51.366;12.348;2023-03-11T01:44:23;16.00;;;7.80;;
18190;SDS011;47004;51.366;12.348;2023-03-11T01:46:29;16.77;;;7.43;;
18190;SDS011;47004;51.366;12.348;2023-03-11T01:48:35;15.00;;;7.57;;
18190;SDS011;47004;51.366;12.348;2023-03-11T01:50:39;15.13;;;7.03;;
18190;SDS011;47004;51.366;12.348;2023-03-11T01:52:44;16.63;;;7.30;;
18190;SDS011;47004;51.366;12.348;2023-03-11T01:54:47;16.30;;;7.70;;
18190;SDS011;47004;51.366;12.348;2023-03-11T01:56:49;17.50;;;8.40;;
18190;SDS011;47004;51.366;12.348;2023-03-11T01:58:52;16.40;;;7.97;;
18190;SDS011;47004;51.366;12.348;2023-03-11T02:00:55;18.93;;;8.33;;
18190;SDS011;47004;51.366;12.348;2023-03-11T02:03:01;18.37;;;8.63;;
18190;SDS011;47004;51.366;12.348;2023-03-11T02:05:07;20.30;;;9.00;;
18190;SDS011;47004;51.366;12.348;2023-03-11T02:07:12;21.87;;;10.53;;
18190;SDS011;47004;51.366;12.348;2023-03-11T02:09:15;21.33;;;9.67;;
18190;SDS011;47004;51.366;12.348;2023-03-11T02:11:18;20.70;;;10.47;;
18190;SDS011;47004;51.366;12.348;2023-03-11T02:13:23;22.13;;;10.33;;
18190;SDS011;47004;51.366;12.348;2023-03-11T02:15:26;25.97;;;10.33;;
18190;SDS011;47004;51.366;12.348;2023-03-11T02:17:29;26.63;;;11.97;;
18190;SDS011;47004;51.366;12.348;2023-03-11T02:19:33;26.63;;;11.37;;
18190;SDS011;47004;51.366;12.348;2023-03-11T02:21:47;23.83;;;10.87;;
18190;SDS011;47004;51.366;12.348;2023-03-11T02:23:51;23.77;;;11.33;;
18190;SDS011;47004;51.366;12.348;2023-03-11T02:25:59;25.70;;;11.13;;
18190;SDS011;47004;51.366;12.348;2023-03-11T02:28:09;27.60;;;11.17;;
18190;SDS011;47004;51.366;12.348;2023-03-11T02:30:13;25.77;;;11.47;;
18190;SDS011;47004;51.366;12.348;2023-03-11T02:32:16;21.67;;;10.53;;
18190;SDS011;47004;51.366;12.348;2023-03-11T02:34:20;24.70;;;10.13;;
18190;SDS011;47004;51.366;12.348;2023-03-11T02:36:30;26.97;;;10.90;;
18190;SDS011;47004;51.366;12.348;2023-03-11T02:38:34;21.73;;;10.37;;
18190;SDS011;47004;51.366;12.348;2023-03-11T02:40:37;23.40;;;10.00;;
18190;SDS011;47004;51.366;12.348;2023-03-11T02:42:44;25.23;;;10.50;;
18190;SDS011;47004;51.366;12.348;2023-03-11T02:44:50;25.63;;;10.77;;
18190;SDS011;47004;51.366;12.348;2023-03-11T02:46:56;23.43;;;10.33;;
18190;SDS011;47004;51.366;12.348;2023-03-11T02:48:59;26.60;;;10.47;;
18190;SDS011;47004;51.366;12.348;2023-03-11T02:51:03;26.03;;;10.73;;
18190;SDS011;47004;51.366;12.348;2023-03-11T02:53:05;21.80;;;9.20;;
18190;SDS011;47004;51.366;12.348;2023-03-11T02:55:07;23.47;;;10.10;;
18190;SDS011;47004;51.366;12.348;2023-03-11T02:57:11;23.07;;;10.03;;
18190;SDS011;47004;51.366;12.348;2023-03-11T02:59:13;20.57;;;9.57;;
18190;SDS011;47004;51.366;12.348;2023-03-11T03:01:17;22.40;;;9.77;;
18190;SDS011;47004;51.366;12.348;2023-03-11T03:03:18;24.00;;;10.23;;
18190;SDS011;47004;51.366;12.348;2023-03-11T03:05:21;28.47;;;10.67;;
18190;SDS011;47004;51.366;12.348;2023-03-11T03:07:23;26.10;;;11.13;;
18190;SDS011;47004;51.366;12.348;2023-03-11T03:09:25;26.30;;;10.70;;
18190;SDS011;47004;51.366;12.348;2023-03-11T03:11:27;27.17;;;11.23;;
18190;SDS011;47004;51.366;12.348;2023-03-11T03:13:29;28.40;;;11.33;;
18190;SDS011;47004;51.366;12.348;2023-03-11T03:15:31;28.57;;;11.87;;
18190;SDS011;47004;51.366;12.348;2023-03-11T03:17:34;28.00;;;11.00;;
18190;SDS011;47004;51.366;12.348;2023-03-11T03:19:36;29.17;;;11.83;;
18190;SDS011;47004;51.366;12.348;2023-03-11T03:21:38;29.40;;;11.87;;
18190;SDS011;47004;51.366;12.348;2023-03-11T03:23:41;29.67;;;12.27;;
18190;SDS011;47004;51.366;12.348;2023-03-11T03:25:43;27.70;;;11.57;;
18190;SDS011;47004;51.366;12.348;2023-03-11T03:27:45;28.30;;;11.20;;
18190;SDS011;47004;51.366;12.348;2023-03-11T03:29:47;26.60;;;11.07;;
18190;SDS011;47004;51.366;12.348;2023-03-11T03:31:49;27.20;;;10.90;;
18190;SDS011;47004;51.366;12.348;2023-03-11T03:33:53;28.63;;;11.80;;
18190;SDS011;47004;51.366;12.348;2023-03-11T03:35:54;27.07;;;11.30;;
18190;SDS011;47004;51.366;12.348;2023-03-11T03:37:56;27.33;;;10.90;;
18190;SDS011;47004;51.366;12.348;2023-03-11T03:39:58;28.10;;;11.07;;
18190;SDS011;47004;51.366;12.348;2023-03-11T03:42:00;25.50;;;11.90;;
18190;SDS011;47004;51.366;12.348;2023-03-11T03:44:02;23.27;;;10.23;;
18190;SDS011;47004;51.366;12.348;2023-03-11T03:46:04;31.23;;;12.17;;
18190;SDS011;47004;51.366;12.348;2023-03-11T03:48:06;25.43;;;10.93;;
18190;SDS011;47004;51.366;12.348;2023-03-11T03:50:10;29.13;;;12.27;;
18190;SDS011;47004;51.366;12.348;2023-03-11T03:52:12;31.17;;;11.77;;
18190;SDS011;47004;51.366;12.348;2023-03-11T03:54:15;30.47;;;12.37;;
18190;SDS011;47004;51.366;12.348;2023-03-11T03:56:17;30.70;;;12.80;;
18190;SDS011;47004;51.366;12.348;2023-03-11T03:58:22;30.37;;;12.00;;
18190;SDS011;47004;51.366;12.348;2023-03-11T04:00:24;35.53;;;13.63;;
18190;SDS011;47004;51.366;12.348;2023-03-11T04:02:26;34.70;;;13.30;;
18190;SDS011;47004;51.366;12.348;2023-03-11T04:04:28;34.23;;;13.07;;
18190;SDS011;47004;51.366;12.348;2023-03-11T04:06:32;32.23;;;12.93;;
18190;SDS011;47004;51.366;12.348;2023-03-11T04:08:34;35.17;;;13.13;;
18190;SDS011;47004;51.366;12.348;2023-03-11T04:10:36;31.10;;;11.87;;
18190;SDS011;47004;51.366;12.348;2023-03-11T04:12:38;31.23;;;13.00;;
18190;SDS011;47004;51.366;12.348;2023-03-11T04:14:40;29.73;;;12.10;;
18190;SDS011;47004;51.366;12.348;2023-03-11T04:16:42;30.53;;;12.33;;
18190;SDS011;47004;51.366;12.348;2023-03-11T04:18:44;29.90;;;11.90;;
18190;SDS011;47004;51.366;12.348;2023-03-11T04:20:46;31.90;;;12.17;;
18190;SDS011;47004;51.366;12.348;2023-03-11T04:22:49;31.83;;;12.70;;
18190;SDS011;47004;51.366;12.348;2023-03-11T04:24:51;27.70;;;11.80;;
18190;SDS011;47004;51.366;12.348;2023-03-11T04:26:53;32.93;;;12.47;;
18190;SDS011;47004;51.366;12.348;2023-03-11T04:28:55;32.13;;;11.80;;
18190;SDS011;47004;51.366;12.348;2023-03-11T04:30:57;30.03;;;11.97;;
18190;SDS011;47004;51.366;12.348;2023-03-11T04:32:59;31.90;;;11.90;;
18190;SDS011;47004;51.366;12.348;2023-03-11T04:35:01;27.20;;;11.57;;
18190;SDS011;47004;51.366;12.348;2023-03-11T04:37:03;27.10;;;10.87;;
18190;SDS011;47004;51.366;12.348;2023-03-11T04:39:08;28.47;;;11.37;;
18190;SDS011;47004;51.366;12.348;2023-03-11T04:41:10;29.97;;;11.00;;
18190;SDS011;47004;51.366;12.348;2023-03-11T04:43:12;26.43;;;10.90;;
18190;SDS011;47004;51.366;12.348;2023-03-11T04:45:14;27.23;;;10.67;;
18190;SDS011;47004;51.366;12.348;2023-03-11T04:47:17;23.13;;;9.20;;
18190;SDS011;47004;51.366;12.348;2023-03-11T04:49:20;26.70;;;10.47;;
18190;SDS011;47004;51.366;12.348;2023-03-11T04:51:24;24.80;;;10.17;;
18190;SDS011;47004;51.366;12.348;2023-03-11T04:53:26;24.50;;;9.73;;
18190;SDS011;47004;51.366;12.348;2023-03-11T04:55:30;27.57;;;11.07;;
18190;SDS011;47004;51.366;12.348;2023-03-11T04:57:32;29.67;;;10.63;;
18190;SDS011;47004;51.366;12.348;2023-03-11T04:59:37;28.03;;;10.67;;
18190;SDS011;47004;51.366;12.348;2023-03-11T05:01:38;29.67;;;10.83;;
18190;SDS011;47004;51.366;12.348;2023-03-11T05:03:40;29.30;;;10.77;;
18190;SDS011;47004;51.366;12.348;2023-03-11T05:05:43;26.70;;;11.23;;
18190;SDS011;47004;51.366;12.348;2023-03-11T05:07:45;28.30;;;11.73;;
18190;SDS011;47004;51.366;12.348;2023-03-11T05:09:47;31.13;;;12.87;;
18190;SDS011;47004;51.366;12.348;2023-03-11T05:11:50;31.53;;;12.37;;
18190;SDS011;47004;51.366;12.348;2023-03-11T05:13:52;35.77;;;12.10;;
18190;SDS011;47004;51.366;12.348;2023-03-11T05:15:54;32.27;;;12.57;;
18190;SDS011;47004;51.366;12.348;2023-03-11T05:17:56;32.97;;;13.37;;
18190;SDS011;47004;51.366;12.348;2023-03-11T05:19:58;33.43;;;12.77;;
18190;SDS011;47004;51.366;12.348;2023-03-11T05:22:00;29.17;;;12.07;;
18190;SDS011;47004;51.366;12.348;2023-03-11T05:24:03;31.93;;;12.93;;
18190;SDS011;47004;51.366;12.348;2023-03-11T05:26:05;32.50;;;13.00;;
18190;SDS011;47004;51.366;12.348;2023-03-11T05:28:10;36.13;;;12.60;;
18190;SDS011;47004;51.366;12.348;2023-03-11T05:30:12;31.00;;;12.27;;
18190;SDS011;47004;51.366;12.348;2023-03-11T05:32:14;30.70;;;12.20;;
18190;SDS011;47004;51.366;12.348;2023-03-11T05:34:18;30.03;;;11.90;;
18190;SDS011;47004;51.366;12.348;2023-03-11T05:36:20;34.03;;;12.70;;
18190;SDS011;47004;51.366;12.348;2023-03-11T05:38:22;34.67;;;13.30;;
18190;SDS011;47004;51.366;12.348;2023-03-11T05:40:24;39.80;;;13.10;;
18190;SDS011;47004;51.366;12.348;2023-03-11T05:42:26;38.50;;;13.93;;
18190;SDS011;47004;51.366;12.348;2023-03-11T05:44:29;41.83;;;14.37;;
18190;SDS011;47004;51.366;12.348;2023-03-11T05:46:31;37.97;;;14.40;;
18190;SDS011;47004;51.366;12.348;2023-03-11T05:48:34;36.83;;;13.10;;
18190;SDS011;47004;51.366;12.348;2023-03-11T05:50:36;38.43;;;14.43;;
18190;SDS011;47004;51.366;12.348;2023-03-11T05:52:38;38.60;;;14.13;;
18190;SDS011;47004;51.366;12.348;2023-03-11T05:54:40;35.80;;;12.93;;
18190;SDS011;47004;51.366;12.348;2023-03-11T05:56:43;34.37;;;13.10;;
18190;SDS011;47004;51.366;12.348;2023-03-11T05:58:46;32.57;;;12.67;;
18190;SDS011;47004;51.366;12.348;2023-03-11T06:00:50;34.13;;;12.50;;
18190;SDS011;47004;51.366;12.348;2023-03-11T06:02:52;36.00;;;12.67;;
18190;SDS011;47004;51.366;12.348;2023-03-11T06:04:53;34.47;;;12.37;;
18190;SDS011;47004;51.366;12.348;2023-03-11T06:06:55;30.93;;;12.03;;
18190;SDS011;47004;51.366;12.348;2023-03-11T06:08:57;30.27;;;12.23;;
18190;SDS011;47004;51.366;12.348;2023-03-11T06:11:02;28.60;;;11.03;;
18190;SDS011;47004;51.366;12.348;2023-03-11T06:13:06;30.93;;;10.77;;
18190;SDS011;47004;51.366;12.348;2023-03-11T06:15:08;23.83;;;10.20;;
18190;SDS011;47004;51.366;12.348;2023-03-11T06:17:11;23.67;;;9.20;;
18190;SDS011;47004;51.366;12.348;2023-03-11T06:19:13;25.60;;;9.97;;
18190;SDS011;47004;51.366;12.348;2023-03-11T06:21:16;25.40;;;10.07;;
18190;SDS011;47004;51.366;12.348;2023-03-11T06:23:20;28.40;;;11.10;;
18190;SDS011;47004;51.366;12.348;2023-03-11T06:25:22;26.73;;;10.53;;
18190;SDS011;47004;51.366;12.348;2023-03-11T06:27:24;28.53;;;10.27;;
18190;SDS011;47004;51.366;12.348;2023-03-11T06:29:26;25.60;;;9.90;;
18190;SDS011;47004;51.366;12.348;2023-03-11T06:31:29;25.07;;;10.20;;
18190;SDS011;47004;51.366;12.348;2023-03-11T06:33:32;25.83;;;10.10;;
18190;SDS011;47004;51.366;12.348;2023-03-11T06:35:34;29.67;;;10.37;;
18190;SDS011;47004;51.366;12.348;2023-03-11T06:37:36;26.27;;;10.10;;
18190;SDS011;47004;51.366;12.348;2023-03-11T06:39:38;28.60;;;10.40;;
18190;SDS011;47004;51.366;12.348;2023-03-11T06:41:40;24.63;;;9.40;;
18190;SDS011;47004;51.366;12.348;2023-03-11T06:43:42;27.93;;;10.47;;
18190;SDS011;47004;51.366;12.348;2023-03-11T06:45:44;24.80;;;10.33;;
18190;SDS011;47004;51.366;12.348;2023-03-11T06:47:46;23.73;;;10.50;;
18190;SDS011;47004;51.366;12.348;2023-03-11T06:49:50;26.67;;;10.53;;
18190;SDS011;47004;51.366;12.348;2023-03-11T06:51:52;22.47;;;9.83;;
18190;SDS011;47004;51.366;12.348;2023-03-11T06:53:54;27.97;;;9.70;;
18190;SDS011;47004;51.366;12.348;2023-03-11T06:55:56;26.43;;;9.60;;
18190;SDS011;47004;51.366;12.348;2023-03-11T06:57:59;25.03;;;8.87;;
18190;SDS011;47004;51.366;12.348;2023-03-11T07:00:01;21.60;;;9.87;;
18190;SDS011;47004;51.366;12.348;2023-03-11T07:02:06;27.13;;;9.30;;
18190;SDS011;47004;51.366;12.348;2023-03-11T07:04:11;20.57;;;8.70;;
18190;SDS011;47004;51.366;12.348;2023-03-11T07:06:14;21.67;;;9.00;;
18190;SDS011;47004;51.366;12.348;2023-03-11T07:08:17;18.03;;;7.80;;
18190;SDS011;47004;51.366;12.348;2023-03-11T07:10:19;22.00;;;8.23;;
18190;SDS011;47004;51.366;12.348;2023-03-11T07:12:21;22.37;;;8.77;;
18190;SDS011;47004;51.366;12.348;2023-03-11T07:14:24;21.10;;;8.43;;
18190;SDS011;47004;51.366;12.348;2023-03-11T07:16:27;20.90;;;8.43;;
18190;SDS011;47004;51.366;12.348;2023-03-11T07:18:30;24.13;;;9.17;;
18190;SDS011;47004;51.366;12.348;2023-03-11T07:20:33;22.47;;;9.27;;
18190;SDS011;47004;51.366;12.348;2023-03-11T07:22:39;23.13;;;8.67;;
18190;SDS011;47004;51.366;12.348;2023-03-11T07:24:42;17.27;;;7.80;;
18190;SDS011;47004;51.366;12.348;2023-03-11T07:26:45;17.70;;;7.67;;
18190;SDS011;47004;51.366;12.348;2023-03-11T07:28:47;23.20;;;8.67;;
18190;SDS011;47004;51.366;12.348;2023-03-11T07:30:50;20.43;;;9.00;;
18190;SDS011;47004;51.366;12.348;2023-03-11T07:32:54;22.70;;;9.07;;
18190;SDS011;47004;51.366;12.348;2023-03-11T07:34:57;20.23;;;8.67;;
18190;SDS011;47004;51.366;12.348;2023-03-11T07:36:59;16.30;;;7.93;;
18190;SDS011;47004;51.366;12.348;2023-03-11T07:39:03;20.63;;;8.60;;
18190;SDS011;47004;51.366;12.348;2023-03-11T07:41:06;23.33;;;9.63;;
18190;SDS011;47004;51.366;12.348;2023-03-11T07:43:10;26.93;;;9.80;;
18190;SDS011;47004;51.366;12.348;2023-03-11T07:45:12;22.20;;;8.90;;
18190;SDS011;47004;51.366;12.348;2023-03-11T07:47:14;19.80;;;8.13;;
18190;SDS011;47004;51.366;12.348;2023-03-11T07:49:16;24.23;;;9.63;;
18190;SDS011;47004;51.366;12.348;2023-03-11T07:51:18;22.17;;;9.03;;
18190;SDS011;47004;51.366;12.348;2023-03-11T07:53:21;23.53;;;9.73;;
18190;SDS011;47004;51.366;12.348;2023-03-11T07:55:25;20.77;;;9.37;;
18190;SDS011;47004;51.366;12.348;2023-03-11T07:57:27;22.27;;;8.67;;
18190;SDS011;47004;51.366;12.348;2023-03-11T07:59:28;23.10;;;9.20;;
18190;SDS011;47004;51.366;12.348;2023-03-11T08:01:31;22.43;;;8.90;;
18190;SDS011;47004;51.366;12.348;2023-03-11T08:03:35;21.03;;;9.30;;
18190;SDS011;47004;51.366;12.348;2023-03-11T08:05:37;23.97;;;9.20;;
18190;SDS011;47004;51.366;12.348;2023-03-11T08:07:39;22.40;;;9.90;;
18190;SDS011;47004;51.366;12.348;2023-03-11T08:09:41;22.83;;;8.70;;
18190;SDS011;47004;51.366;12.348;2023-03-11T08:11:44;23.17;;;10.27;;
18190;SDS011;47004;51.366;12.348;2023-03-11T08:13:46;22.27;;;9.53;;
18190;SDS011;47004;51.366;12.348;2023-03-11T08:15:49;24.83;;;10.43;;
18190;SDS011;47004;51.366;12.348;2023-03-11T08:17:51;24.30;;;10.43;;
18190;SDS011;47004;51.366;12.348;2023-03-11T08:19:53;25.80;;;10.17;;
18190;SDS011;47004;51.366;12.348;2023-03-11T08:21:59;23.27;;;9.30;;
18190;SDS011;47004;51.366;12.348;2023-03-11T08:24:01;22.93;;;9.80;;
18190;SDS011;47004;51.366;12.348;2023-03-11T08:26:04;18.93;;;9.40;;
18190;SDS011;47004;51.366;12.348;2023-03-11T08:28:08;20.70;;;9.63;;
18190;SDS011;47004;51.366;12.348;2023-03-11T08:30:10;24.07;;;9.73;;
18190;SDS011;47004;51.366;12.348;2023-03-11T08:32:13;18.00;;;8.67;;
18190;SDS011;47004;51.366;12.348;2023-03-11T08:34:15;17.10;;;7.60;;
18190;SDS011;47004;51.366;12.348;2023-03-11T08:36:17;16.47;;;7.67;;
18190;SDS011;47004;51.366;12.348;2023-03-11T08:38:20;16.53;;;7.40;;
18190;SDS011;47004;51.366;12.348;2023-03-11T08:40:22;15.20;;;7.30;;
18190;SDS011;47004;51.366;12.348;2023-03-11T08:42:24;20.50;;;7.47;;
18190;SDS011;47004;51.366;12.348;2023-03-11T08:44:27;14.20;;;7.00;;
18190;SDS011;47004;51.366;12.348;2023-03-11T08:46:30;15.03;;;7.03;;
18190;SDS011;47004;51.366;12.348;2023-03-11T08:48:35;14.53;;;6.53;;
18190;SDS011;47004;51.366;12.348;2023-03-11T08:50:40;16.60;;;6.23;;
18190;SDS011;47004;51.366;12.348;2023-03-11T08:52:43;15.87;;;6.60;;
18190;SDS011;47004;51.366;12.348;2023-03-11T08:54:45;14.63;;;6.13;;
18190;SDS011;47004;51.366;12.348;2023-03-11T08:56:47;13.23;;;5.60;;
18190;SDS011;47004;51.366;12.348;2023-03-11T08:58:49;11.37;;;6.17;;
18190;SDS011;47004;51.366;12.348;2023-03-11T09:00:53;15.00;;;6.07;;
18190;SDS011;47004;51.366;12.348;2023-03-11T09:02:55;19.73;;;6.57;;
18190;SDS011;47004;51.366;12.348;2023-03-11T09:05:00;13.80;;;6.63;;
18190;SDS011;47004;51.366;12.348;2023-03-11T09:07:02;17.37;;;6.77;;
18190;SDS011;47004;51.366;12.348;2023-03-11T09:09:07;13.73;;;6.37;;
18190;SDS011;47004;51.366;12.348;2023-03-11T09:11:10;19.13;;;7.43;;
18190;SDS011;47004;51.366;12.348;2023-03-11T09:13:12;13.43;;;7.20;;
18190;SDS011;47004;51.366;12.348;2023-03-11T09:15:14;13.43;;;6.43;;
18190;SDS011;47004;51.366;12.348;2023-03-11T09:17:20;13.83;;;7.03;;
18190;SDS011;47004;51.366;12.348;2023-03-11T09:19:24;15.97;;;7.63;;
18190;SDS011;47004;51.366;12.348;2023-03-11T09:21:27;15.53;;;6.70;;
18190;SDS011;47004;51.366;12.348;2023-03-11T09:23:29;14.37;;;6.93;;
18190;SDS011;47004;51.366;12.348;2023-03-11T09:25:31;15.30;;;7.20;;
18190;SDS011;47004;51.366;12.348;2023-03-11T09:27:33;14.00;;;6.67;;
18190;SDS011;47004;51.366;12.348;2023-03-11T09:29:35;14.07;;;6.73;;
18190;SDS011;47004;51.366;12.348;2023-03-11T09:31:37;13.20;;;7.00;;
18190;SDS011;47004;51.366;12.348;2023-03-11T09:33:40;14.83;;;6.80;;
18190;SDS011;47004;51.366;12.348;2023-03-11T09:35:42;18.53;;;7.27;;
18190;SDS011;47004;51.366;12.348;2023-03-11T09:37:45;11.30;;;5.97;;
18190;SDS011;47004;51.366;12.348;2023-03-11T09:39:47;12.57;;;6.77;;
18190;SDS011;47004;51.366;12.348;2023-03-11T09:41:51;13.63;;;6.70;;
18190;SDS011;47004;51.366;12.348;2023-03-11T09:43:58;14.03;;;6.33;;
18190;SDS011;47004;51.366;12.348;2023-03-11T09:46:15;11.23;;;5.90;;
18190;SDS011;47004;51.366;12.348;2023-03-11T09:48:36;18.07;;;6.93;;
18190;SDS011;47004;51.366;12.348;2023-03-11T09:50:44;13.67;;;6.43;;
18190;SDS011;47004;51.366;12.348;2023-03-11T09:52:54;15.70;;;6.73;;
18190;SDS011;47004;51.366;12.348;2023-03-11T09:55:02;14.23;;;6.37;;
18190;SDS011;47004;51.366;12.348;2023-03-11T09:57:14;18.83;;;6.70;;
18190;SDS011;47004;51.366;12.348;2023-03-11T09:59:21;15.73;;;7.00;;
18190;SDS011;47004;51.366;12.348;2023-03-11T10:01:31;12.83;;;7.20;;
18190;SDS011;47004;51.366;12.348;2023-03-11T10:03:35;13.33;;;6.93;;
18190;SDS011;47004;51.366;12.348;2023-03-11T10:05:37;12.60;;;6.90;;
18190;SDS011;47004;51.366;12.348;2023-03-11T10:07:44;13.40;;;6.73;;
18190;SDS011;47004;51.366;12.348;2023-03-11T10:09:52;13.80;;;6.47;;
18190;SDS011;47004;51.366;12.348;2023-03-11T10:11:59;11.40;;;6.00;;
18190;SDS011;47004;51.366;12.348;2023-03-11T10:14:16;13.27;;;6.90;;
18190;SDS011;47004;51.366;12.348;2023-03-11T10:16:41;14.93;;;6.60;;
18190;SDS011;47004;51.366;12.348;2023-03-11T10:18:51;12.40;;;6.37;;
18190;SDS011;47004;51.366;12.348;2023-03-11T10:20:59;12.03;;;6.20;;
18190;SDS011;47004;51.366;12.348;2023-03-11T10:23:09;10.40;;;6.00;;
18190;SDS011;47004;51.366;12.348;2023-03-11T10:25:23;14.93;;;6.73;;
18190;SDS011;47004;51.366;12.348;2023-03-11T10:27:29;15.47;;;6.57;;
18190;SDS011;47004;51.366;12.348;2023-03-11T10:29:39;11.67;;;5.53;;
18190;SDS011;47004;51.366;12.348;2023-03-11T10:31:47;12.63;;;6.20;;
18190;SDS011;47004;51.366;12.348;2023-03-11T10:33:54;12.37;;;5.80;;
18190;SDS011;47004;51.366;12.348;2023-03-11T10:36:03;9.33;;;5.43;;
18190;SDS011;47004;51.366;12.348;2023-03-11T10:38:11;14.23;;;5.63;;
18190;SDS011;47004;51.366;12.348;2023-03-11T10:40:17;12.37;;;6.10;;
18190;SDS011;47004;51.366;12.348;2023-03-11T10:42:24;13.53;;;6.73;;
18190;SDS011;47004;51.366;12.348;2023-03-11T10:44:30;12.70;;;6.63;;
18190;SDS011;47004;51.366;12.348;2023-03-11T10:46:34;16.30;;;6.73;;
18190;SDS011;47004;51.366;12.348;2023-03-11T10:48:36;15.23;;;6.67;;
18190;SDS011;47004;51.366;12.348;2023-03-11T10:50:42;13.53;;;6.57;;
18190;SDS011;47004;51.366;12.348;2023-03-11T10:53:06;14.50;;;6.83;;
18190;SDS011;47004;51.366;12.348;2023-03-11T10:55:10;11.73;;;6.53;;
18190;SDS011;47004;51.366;12.348;2023-03-11T10:57:20;15.23;;;7.40;;
18190;SDS011;47004;51.366;12.348;2023-03-11T10:59:26;12.33;;;6.37;;
18190;SDS011;47004;51.366;12.348;2023-03-11T11:01:30;11.47;;;6.67;;
18190;SDS011;47004;51.366;12.348;2023-03-11T11:03:32;14.83;;;7.07;;
18190;SDS011;47004;51.366;12.348;2023-03-11T11:05:34;12.20;;;6.87;;
18190;SDS011;47004;51.366;12.348;2023-03-11T11:07:37;14.00;;;7.73;;
18190;SDS011;47004;51.366;12.348;2023-03-11T11:09:40;12.70;;;7.03;;
18190;SDS011;47004;51.366;12.348;2023-03-11T11:11:43;16.50;;;7.23;;
18190;SDS011;47004;51.366;12.348;2023-03-11T11:14:01;14.80;;;6.90;;
18190;SDS011;47004;51.366;12.348;2023-03-11T11:16:16;13.30;;;7.20;;
18190;SDS011;47004;51.366;12.348;2023-03-11T11:18:20;13.13;;;7.13;;
18190;SDS011;47004;51.366;12.348;2023-03-11T11:20:25;17.73;;;8.13;;
18190;SDS011;47004;51.366;12.348;2023-03-11T11:22:28;14.77;;;7.40;;
18190;SDS011;47004;51.366;12.348;2023-03-11T11:24:31;12.20;;;7.00;;
18190;SDS011;47004;51.366;12.348;2023-03-11T11:26:33;14.27;;;7.50;;
18190;SDS011;47004;51.366;12.348;2023-03-11T11:28:37;14.50;;;7.30;;
18190;SDS011;47004;51.366;12.348;2023-03-11T11:30:41;13.43;;;7.27;;
18190;SDS011;47004;51.366;12.348;2023-03-11T11:32:54;12.57;;;6.50;;
18190;SDS011;47004;51.366;12.348;2023-03-11T11:34:57;14.00;;;7.00;;
18190;SDS011;47004;51.366;12.348;2023-03-11T11:37:00;12.10;;;6.70;;
18190;SDS011;47004;51.366;12.348;2023-03-11T11:39:08;15.07;;;6.80;;
18190;SDS011;47004;51.366;12.348;2023-03-11T11:41:16;13.83;;;7.30;;
18190;SDS011;47004;51.366;12.348;2023-03-11T11:43:24;13.20;;;6.87;;
18190;SDS011;47004;51.366;12.348;2023-03-11T11:45:38;12.93;;;6.97;;
18190;SDS011;47004;51.366;12.348;2023-03-11T11:47:43;14.63;;;7.33;;
18190;SDS011;47004;51.366;12.348;2023-03-11T11:49:53;13.43;;;6.50;;
18190;SDS011;47004;51.366;12.348;2023-03-11T11:52:01;12.73;;;6.37;;
18190;SDS011;47004;51.366;12.348;2023-03-11T11:54:12;14.03;;;6.57;;
18190;SDS011;47004;51.366;12.348;2023-03-11T11:56:17;11.10;;;6.03;;
18190;SDS011;47004;51.366;12.348;2023-03-11T11:58:19;11.17;;;6.10;;
18190;SDS011;47004;51.366;12.348;2023-03-11T12:00:23;12.20;;;5.70;;